Time;durP1;ratioP1;P1;durP2;ratioP2;P2;SDS_P1;SDS_P2;PMS_P1;PMS_P2;Temp;Humidity;BMP_temperature;BMP_pressure;BME280_temperature;BME280_humidity;BME280_pressure;Samples;Min_cycle;Max_cycle;Signal;HPM_P1;HPM_P2
2023/05/16 00:01:04;;;;;;;48.42;27.95;;;;;;;16.53;100.00;99694.25;5075997;28;20055;-61
2023/05/16 00:03:29;;;;;;;51.60;29.75;;;;;;;16.51;100.00;99688.25;5074967;28;20044;-62
2023/05/16 00:05:56;;;;;;;49.05;28.98;;;;;;;16.45;100.00;99696.28;5074783;28;20335;-63
2023/05/16 00:08:22;;;;;;;49.88;28.40;;;;;;;15.93;100.00;99692.38;5074768;28;20036;-62
2023/05/16 00:10:47;;;;;;;46.05;25.92;;;;;;;16.03;100.00;99683.97;5074360;28;20377;-62
2023/05/16 00:13:13;;;;;;;52.88;29.38;;;;;;;15.70;100.00;99678.47;5075199;28;20338;-61
2023/05/16 00:15:38;;;;;;;46.90;26.80;;;;;;;15.11;100.00;99681.50;5073395;28;20058;-62
2023/05/16 00:18:04;;;;;;;55.58;30.77;;;;;;;15.22;100.00;99670.28;5075078;28;20142;-61
2023/05/16 00:20:30;;;;;;;56.63;31.02;;;;;;;14.94;100.00;99692.44;5073205;28;20032;-61
2023/05/16 00:22:59;;;;;;;63.90;33.42;;;;;;;15.02;100.00;99692.31;5075180;28;20103;-62
2023/05/16 00:25:25;;;;;;;63.53;34.75;;;;;;;15.21;100.00;99681.97;5073890;28;20028;-61
2023/05/16 00:27:51;;;;;;;62.33;34.67;;;;;;;15.25;100.00;99685.91;5074449;28;20052;-62
2023/05/16 00:30:17;;;;;;;65.03;34.13;;;;;;;15.15;100.00;99688.09;5076575;28;20364;-62
2023/05/16 00:32:42;;;;;;;65.90;34.35;;;;;;;15.13;100.00;99682.94;5076674;28;20033;-61
2023/05/16 00:35:10;;;;;;;65.55;34.10;;;;;;;15.25;100.00;99683.25;5075445;28;20028;-62
2023/05/16 00:37:36;;;;;;;61.38;34.63;;;;;;;15.30;100.00;99678.16;5071160;28;20024;-62
2023/05/16 00:40:02;;;;;;;66.15;34.75;;;;;;;15.46;100.00;99682.38;5073102;28;20160;-62
2023/05/16 00:42:27;;;;;;;61.70;32.20;;;;;;;15.52;100.00;99679.75;5074037;28;20109;-61
2023/05/16 00:44:52;;;;;;;54.85;33.28;;;;;;;15.60;100.00;99679.66;5076559;28;20829;-61
2023/05/16 00:47:18;;;;;;;57.88;31.50;;;;;;;15.71;100.00;99678.28;5074903;28;20074;-62
2023/05/16 00:49:43;;;;;;;54.50;30.52;;;;;;;15.77;100.00;99671.34;5075735;28;20036;-62
2023/05/16 00:52:09;;;;;;;53.45;31.20;;;;;;;15.81;100.00;99675.25;5074924;28;20041;-62
2023/05/16 00:54:34;;;;;;;55.42;30.70;;;;;;;15.84;100.00;99670.34;5075461;28;20477;-62
2023/05/16 00:57:00;;;;;;;58.13;30.65;;;;;;;15.88;100.00;99674.25;5075002;28;20063;-62
2023/05/16 00:59:26;;;;;;;52.20;31.38;;;;;;;15.91;100.00;99671.19;5076670;28;20437;-62
2023/05/16 01:01:52;;;;;;;52.45;30.52;;;;;;;15.96;100.00;99665.25;5080182;28;20047;-62
2023/05/16 01:04:19;;;;;;;56.53;31.00;;;;;;;15.96;100.00;99665.25;5079583;28;20073;-62
2023/05/16 01:06:45;;;;;;;56.50;30.90;;;;;;;16.00;100.00;99661.16;5080600;28;20333;-62
2023/05/16 01:09:11;;;;;;;52.25;29.40;;;;;;;16.00;100.00;99661.16;5078891;28;20078;-62
2023/05/16 01:11:54;;;;;;;54.13;30.25;;;;;;;15.95;100.00;99664.44;5078465;28;20044;-61
2023/05/16 01:14:44;;;;;;;44.67;26.02;;;;;;;15.73;100.00;99662.91;5078484;28;20029;-62
2023/05/16 01:17:33;;;;;;;53.15;29.10;;;;;;;15.65;100.00;99657.72;5076872;28;20337;-61
2023/05/16 01:20:14;;;;;;;46.40;26.70;;;;;;;15.57;100.00;99672.00;5078940;28;20134;-61
2023/05/16 01:23:06;;;;;;;50.65;28.25;;;;;;;15.59;100.00;99656.63;5075074;28;20214;-62
2023/05/16 01:25:44;;;;;;;49.88;29.58;;;;;;;15.62;100.00;99650.94;5076809;28;20032;-61
2023/05/16 01:28:11;;;;;;;53.42;29.35;;;;;;;15.64;100.00;99650.72;5077386;28;20455;-62
2023/05/16 01:30:39;;;;;;;52.28;28.70;;;;;;;15.68;100.00;99649.31;5079410;28;20041;-62
2023/05/16 01:33:04;;;;;;;45.10;26.42;;;;;;;15.68;100.00;99651.97;5076513;28;20042;-61
2023/05/16 01:35:30;;;;;;;51.60;29.92;;;;;;;15.66;100.00;99642.53;5076539;28;20230;-62
2023/05/16 01:38:49;;;;;;;53.13;30.23;;;;;;;15.67;100.00;99641.50;5079732;28;20068;-62
2023/05/16 01:41:23;;;;;;;57.83;29.60;;;;;;;15.62;100.00;99640.25;5015096;28;20037;-62
2023/05/16 01:43:55;;;;;;;51.08;28.38;;;;;;;15.42;100.00;99611.75;5074682;28;20052;-62
2023/05/16 01:46:27;;;;;;;52.65;30.55;;;;;;;15.47;100.00;99630.66;5079026;28;20029;-62
2023/05/16 01:48:57;;;;;;;54.83;31.20;;;;;;;15.52;100.00;99631.72;5077627;28;20268;-62
2023/05/16 01:51:26;;;;;;;49.33;28.90;;;;;;;15.52;100.00;99626.38;5077994;28;20041;-62
2023/05/16 01:53:57;;;;;;;52.17;30.95;;;;;;;15.50;100.00;99628.41;5072970;28;20030;-61
2023/05/16 01:56:25;;;;;;;49.40;30.55;;;;;;;15.54;100.00;99624.34;5079125;28;20362;-62
2023/05/16 01:58:53;;;;;;;53.00;30.30;;;;;;;15.60;100.00;99618.28;5077738;28;20028;-62
2023/05/16 02:01:18;;;;;;;53.55;31.13;;;;;;;15.64;100.00;99616.03;5078553;28;20033;-62
2023/05/16 02:03:44;;;;;;;54.78;32.47;;;;;;;15.66;100.00;99608.66;5078816;28;20047;-62
2023/05/16 02:06:09;;;;;;;49.75;30.52;;;;;;;15.66;100.00;99605.97;5077869;28;20036;-61
2023/05/16 02:08:35;;;;;;;53.40;30.30;;;;;;;15.65;100.00;99604.34;5077666;28;20036;-62
2023/05/16 02:11:00;;;;;;;53.53;30.00;;;;;;;15.67;100.00;99607.63;5077798;28;20333;-61
2023/05/16 02:13:26;;;;;;;51.33;29.35;;;;;;;15.64;100.00;99594.69;5077124;28;20062;-62
2023/05/16 02:15:51;;;;;;;53.42;30.60;;;;;;;15.52;100.00;99594.34;5077762;28;20028;-62
2023/05/16 02:18:18;;;;;;;47.63;29.15;;;;;;;15.51;100.00;99591.88;5077915;28;20077;-62
2023/05/16 02:20:43;;;;;;;49.08;29.38;;;;;;;15.50;100.00;99591.06;5077365;28;20047;-62
2023/05/16 02:23:09;;;;;;;53.63;31.17;;;;;;;15.51;100.00;99594.56;5079691;28;20040;-62
2023/05/16 02:25:34;;;;;;;51.78;28.98;;;;;;;15.45;100.00;99596.16;5076301;28;20024;-61
2023/05/16 02:27:59;;;;;;;54.70;31.23;;;;;;;15.42;100.00;99601.06;5077370;28;20060;-61
2023/05/16 02:30:25;;;;;;;51.78;29.85;;;;;;;15.47;100.00;99602.13;5079814;28;20044;-62
2023/05/16 02:32:52;;;;;;;50.67;30.65;;;;;;;15.54;100.00;99600.31;5076716;28;20241;-62
2023/05/16 02:35:17;;;;;;;50.42;29.67;;;;;;;15.56;100.00;99590.28;5079077;28;20037;-62
2023/05/16 02:37:43;;;;;;;52.13;27.77;;;;;;;15.67;100.00;99588.94;5075122;28;20260;-61
2023/05/16 02:40:09;;;;;;;47.15;26.15;;;;;;;15.67;100.00;99588.94;5078298;28;20039;-61
2023/05/16 02:42:35;;;;;;;54.20;30.13;;;;;;;15.58;100.00;99587.44;5076687;28;20202;-62
2023/05/16 02:45:00;;;;;;;49.92;29.98;;;;;;;15.61;100.00;99589.72;5077625;28;20061;-61
2023/05/16 02:47:26;;;;;;;49.03;29.00;;;;;;;15.66;100.00;99581.13;5075564;28;20046;-61
2023/05/16 02:49:51;;;;;;;53.60;28.80;;;;;;;15.61;100.00;99576.38;5075661;28;20032;-61
2023/05/16 02:52:17;;;;;;;51.67;30.15;;;;;;;15.62;100.00;99578.03;5075103;28;20234;-62
2023/05/16 02:54:43;;;;;;;51.08;29.60;;;;;;;15.62;100.00;99578.88;5077933;28;20024;-62
2023/05/16 02:57:09;;;;;;;52.92;31.20;;;;;;;15.61;100.00;99573.72;5077710;28;20044;-62
2023/05/16 02:59:35;;;;;;;52.92;29.73;;;;;;;15.59;100.00;99567.72;5076497;28;20048;-62
2023/05/16 03:02:01;;;;;;;51.40;30.40;;;;;;;15.55;100.00;99575.28;5077376;28;20043;-62
2023/05/16 03:04:26;;;;;;;50.80;30.02;;;;;;;15.50;100.00;99584.91;5076422;28;20040;-62
2023/05/16 03:06:52;;;;;;;50.03;28.65;;;;;;;15.48;100.00;99597.63;5075271;28;20036;-62
2023/05/16 03:09:18;;;;;;;47.60;27.33;;;;;;;15.47;100.00;99599.47;5077667;28;20800;-62
2023/05/16 03:11:44;;;;;;;47.00;27.75;;;;;;;15.48;100.00;99605.63;5075510;28;20044;-62
2023/05/16 03:14:11;;;;;;;47.13;27.02;;;;;;;15.48;100.00;99614.44;5076993;28;20250;-62
2023/05/16 03:16:37;;;;;;;51.00;27.95;;;;;;;15.53;100.00;99619.19;5074369;28;20226;-61
2023/05/16 03:19:06;;;;;;;48.05;28.80;;;;;;;15.56;100.00;99616.94;5074608;28;20103;-62
2023/05/16 03:21:31;;;;;;;53.55;29.98;;;;;;;15.47;100.00;99612.81;5075648;28;20044;-62
2023/05/16 03:23:57;;;;;;;49.45;30.08;;;;;;;15.50;100.00;99614.25;5078400;28;20028;-62
2023/05/16 03:26:23;;;;;;;54.50;29.65;;;;;;;15.46;100.00;99616.50;5077065;28;20040;-61
2023/05/16 03:28:50;;;;;;;46.60;28.58;;;;;;;15.34;100.00;99613.53;5075485;28;20368;-62
2023/05/16 03:31:15;;;;;;;45.67;28.58;;;;;;;15.26;100.00;99611.03;5075741;28;20032;-62
2023/05/16 03:33:41;;;;;;;54.97;29.52;;;;;;;15.28;100.00;99613.50;5074418;28;20043;-62
2023/05/16 03:36:06;;;;;;;53.97;28.83;;;;;;;15.35;100.00;99606.38;5074921;28;20067;-61
2023/05/16 03:38:32;;;;;;;54.08;31.75;;;;;;;15.45;100.00;99603.34;5075037;28;20318;-62
2023/05/16 03:40:57;;;;;;;52.67;29.30;;;;;;;15.49;100.00;99593.94;5076907;28;20032;-61
2023/05/16 03:43:23;;;;;;;48.83;28.80;;;;;;;15.53;100.00;99593.34;5076834;28;20338;-62
2023/05/16 03:45:48;;;;;;;51.78;30.10;;;;;;;15.56;100.00;99594.78;5075191;28;20037;-61
2023/05/16 03:48:14;;;;;;;50.03;29.52;;;;;;;15.58;100.00;99601.59;5076549;28;20040;-62
2023/05/16 03:50:40;;;;;;;51.17;29.35;;;;;;;15.63;100.00;99611.72;5075366;28;20311;-62
2023/05/16 03:53:05;;;;;;;47.03;27.20;;;;;;;15.69;100.00;99626.94;5075037;28;20044;-62
2023/05/16 03:55:30;;;;;;;45.17;28.15;;;;;;;15.75;100.00;99631.47;5076994;28;20028;-62
2023/05/16 03:57:56;;;;;;;49.50;28.70;;;;;;;15.81;100.00;99628.03;5074586;28;20036;-62
2023/05/16 04:00:21;;;;;;;48.50;27.90;;;;;;;15.84;100.00;99624.13;5075862;28;20297;-62
2023/05/16 04:02:47;;;;;;;48.85;27.83;;;;;;;15.89;100.00;99627.84;5077463;28;20037;-62
2023/05/16 04:05:12;;;;;;;45.35;26.80;;;;;;;15.87;100.00;99618.38;5076719;28;20051;-62
2023/05/16 04:07:38;;;;;;;45.00;25.60;;;;;;;15.88;100.00;99614.69;5076527;28;20040;-63
2023/05/16 04:10:04;;;;;;;47.53;27.60;;;;;;;15.90;100.00;99615.31;5073008;28;20040;-62
2023/05/16 04:12:30;;;;;;;47.45;28.13;;;;;;;15.93;100.00;99609.59;5075825;28;20317;-61
2023/05/16 04:14:55;;;;;;;40.72;26.00;;;;;;;15.92;100.00;99602.59;5076209;28;20209;-63
2023/05/16 04:17:21;;;;;;;43.85;25.23;;;;;;;15.83;100.00;99607.28;5075130;28;20194;-62
2023/05/16 04:19:46;;;;;;;44.45;25.98;;;;;;;15.83;100.00;99609.13;5075599;28;20214;-61
2023/05/16 04:22:12;;;;;;;39.72;25.88;;;;;;;15.76;100.00;99605.63;5073841;28;20389;-62
2023/05/16 04:24:37;;;;;;;39.72;25.52;;;;;;;15.68;100.00;99606.59;5074713;28;20032;-62
2023/05/16 04:27:04;;;;;;;37.85;23.73;;;;;;;15.60;100.00;99606.75;5077532;28;20056;-62
2023/05/16 04:29:31;;;;;;;42.22;25.23;;;;;;;15.49;100.00;99601.94;5077254;28;20055;-62
2023/05/16 04:31:56;;;;;;;42.47;25.63;;;;;;;15.56;100.00;99592.09;5077498;28;20059;-62
2023/05/16 04:34:26;;;;;;;38.42;25.52;;;;;;;15.64;100.00;99592.84;5079636;28;20328;-61
2023/05/16 04:36:52;;;;;;;43.42;28.00;;;;;;;15.69;100.00;99602.09;5080514;28;20046;-62
2023/05/16 04:39:18;;;;;;;42.95;25.85;;;;;;;15.79;100.00;99595.34;5079973;28;20024;-62
2023/05/16 04:41:44;;;;;;;38.58;24.45;;;;;;;15.75;100.00;99599.44;5080412;28;20086;-61
2023/05/16 04:44:10;;;;;;;40.45;26.95;;;;;;;15.43;100.00;99608.06;5080391;28;20354;-63
2023/05/16 04:46:36;;;;;;;41.97;25.67;;;;;;;15.59;100.00;99613.91;5080046;28;20483;-62
2023/05/16 04:49:01;;;;;;;40.85;24.95;;;;;;;15.75;100.00;99603.97;5080797;28;20040;-63
2023/05/16 04:51:27;;;;;;;35.95;23.92;;;;;;;15.87;100.00;99618.38;5080300;28;20095;-62
2023/05/16 04:53:53;;;;;;;36.03;23.27;;;;;;;15.96;100.00;99617.19;5080748;28;20033;-62
2023/05/16 04:56:19;;;;;;;32.65;20.45;;;;;;;15.91;100.00;99622.31;5080758;28;20059;-62
2023/05/16 04:58:45;;;;;;;28.55;20.15;;;;;;;15.92;100.00;99618.63;5079430;28;20357;-63
2023/05/16 05:01:10;;;;;;;39.40;18.80;;;;;;;15.92;100.00;99622.13;5080070;28;20039;-62
2023/05/16 05:03:36;;;;;;;23.88;16.42;;;;;;;15.80;100.00;99614.88;5080299;28;20033;-62
2023/05/16 05:06:02;;;;;;;22.30;16.15;;;;;;;15.74;100.00;99623.66;5079867;28;20070;-62
2023/05/16 05:08:27;;;;;;;18.15;12.95;;;;;;;15.58;100.00;99619.47;5079766;28;20048;-63
2023/05/16 05:10:55;;;;;;;18.73;13.93;;;;;;;15.60;100.00;99612.06;5079983;28;20096;-62
2023/05/16 05:13:20;;;;;;;19.05;13.27;;;;;;;15.54;100.00;99618.16;5080290;28;20044;-61
2023/05/16 05:15:46;;;;;;;18.33;13.25;;;;;;;15.45;100.00;99630.03;5079363;28;20036;-62
2023/05/16 05:18:11;;;;;;;17.92;13.35;;;;;;;15.57;100.00;99621.31;5079464;28;20044;-62
2023/05/16 05:20:37;;;;;;;19.95;13.18;;;;;;;15.58;100.00;99625.63;5079828;28;20028;-62
2023/05/16 05:23:03;;;;;;;17.23;12.88;;;;;;;15.45;100.00;99628.19;5080171;28;20442;-62
2023/05/16 05:25:28;;;;;;;20.35;13.65;;;;;;;15.16;100.00;99631.06;5079979;28;20043;-62
2023/05/16 05:27:54;;;;;;;20.95;14.27;;;;;;;15.14;100.00;99622.44;5079944;28;20384;-62
2023/05/16 05:30:19;;;;;;;20.30;14.63;;;;;;;15.11;100.00;99626.31;5079954;28;20040;-62
2023/05/16 05:32:45;;;;;;;19.60;13.93;;;;;;;15.05;100.00;99624.41;5079330;28;20343;-61
2023/05/16 05:35:10;;;;;;;20.65;14.65;;;;;;;14.98;100.00;99611.03;5079787;28;20039;-61
2023/05/16 05:37:36;;;;;;;22.02;15.77;;;;;;;15.07;100.00;99617.06;5079612;28;20436;-62
2023/05/16 05:40:02;;;;;;;26.08;16.20;;;;;;;15.40;100.00;99611.13;5079777;28;20493;-61
2023/05/16 05:42:28;;;;;;;22.27;14.77;;;;;;;15.42;100.00;99609.91;5079604;28;20103;-62
2023/05/16 05:44:54;;;;;;;23.23;15.85;;;;;;;15.39;100.00;99615.63;5078640;28;20045;-61
2023/05/16 05:47:19;;;;;;;22.48;14.63;;;;;;;15.23;100.00;99602.59;5078953;28;20044;-62
2023/05/16 05:49:45;;;;;;;23.30;16.08;;;;;;;15.27;100.00;99603.84;5079219;28;20032;-61
2023/05/16 05:52:10;;;;;;;23.73;16.45;;;;;;;15.45;100.00;99595.34;5079515;28;20052;-62
2023/05/16 05:54:36;;;;;;;24.10;17.77;;;;;;;15.75;100.00;99596.78;5079524;28;20242;-62
2023/05/16 05:57:01;;;;;;;21.85;15.80;;;;;;;15.71;100.00;99594.72;5077944;28;20242;-62
2023/05/16 05:59:27;;;;;;;18.58;14.27;;;;;;;15.35;100.00;99587.69;5079406;28;20103;-61
2023/05/16 06:01:52;;;;;;;21.40;13.75;;;;;;;15.33;100.00;99595.88;5079551;28;20036;-62
2023/05/16 06:04:21;;;;;;;17.75;13.88;;;;;;;15.19;100.00;99599.50;5079806;28;20064;-61
2023/05/16 06:06:47;;;;;;;18.98;14.43;;;;;;;15.02;100.00;99603.47;5078459;28;20043;-62
2023/05/16 06:09:13;;;;;;;22.63;15.13;;;;;;;15.06;100.00;99618.06;5075041;28;20029;-63
2023/05/16 06:11:40;;;;;;;21.30;15.77;;;;;;;15.11;100.00;99596.16;5075005;28;20040;-62
2023/05/16 06:14:06;;;;;;;20.35;14.73;;;;;;;15.16;100.00;99597.22;5072849;28;20040;-62
2023/05/16 06:16:31;;;;;;;21.38;15.90;;;;;;;15.22;100.00;99598.28;5073662;28;20048;-62
2023/05/16 06:18:57;;;;;;;19.75;15.98;;;;;;;15.09;100.00;99604.34;5075565;28;20284;-62
2023/05/16 06:21:23;;;;;;;22.83;16.48;;;;;;;15.14;100.00;99591.25;5072714;28;20040;-61
2023/05/16 06:23:48;;;;;;;22.27;16.90;;;;;;;15.06;100.00;99599.41;5075574;28;20427;-61
2023/05/16 06:26:14;;;;;;;24.55;17.60;;;;;;;15.11;100.00;99620.97;5074446;28;20040;-62
2023/05/16 06:28:40;;;;;;;26.80;17.67;;;;;;;15.30;100.00;99617.63;5074542;28;20234;-62
2023/05/16 06:31:05;;;;;;;26.50;17.88;;;;;;;15.51;100.00;99621.22;5072510;28;20058;-62
2023/05/16 06:33:31;;;;;;;26.73;19.67;;;;;;;15.54;100.00;99613.66;5073233;28;20033;-62
2023/05/16 06:35:57;;;;;;;25.80;18.98;;;;;;;15.62;100.00;99591.38;5072605;28;20040;-62
2023/05/16 06:38:22;;;;;;;23.67;18.58;;;;;;;15.47;100.00;99585.28;5073332;28;20031;-63
2023/05/16 06:40:48;;;;;;;27.52;17.98;;;;;;;15.47;100.00;99601.31;5074782;28;20032;-61
2023/05/16 06:43:13;;;;;;;24.23;19.05;;;;;;;15.61;100.00;99608.41;5071773;28;20028;-62
2023/05/16 06:45:39;;;;;;;23.52;17.33;;;;;;;15.68;100.00;99585.25;5074400;28;20028;-62
2023/05/16 06:48:07;;;;;;;24.60;17.73;;;;;;;15.83;100.00;99575.25;5073092;28;20103;-61
2023/05/16 06:50:34;;;;;;;22.80;16.30;;;;;;;15.80;100.00;99575.66;5075014;28;20070;-62
2023/05/16 06:53:00;;;;;;;22.27;16.48;;;;;;;15.72;100.00;99569.66;5073986;28;20037;-62
2023/05/16 06:55:26;;;;;;;21.05;16.77;;;;;;;15.70;100.00;99577.03;5072069;28;20381;-62
2023/05/16 06:57:51;;;;;;;20.75;16.60;;;;;;;15.71;100.00;99573.34;5072370;28;20040;-61
2023/05/16 07:00:17;;;;;;;24.55;17.60;;;;;;;15.79;100.00;99584.69;5073049;28;20246;-61
2023/05/16 07:02:43;;;;;;;20.00;15.77;;;;;;;15.88;100.00;99583.47;5073035;28;20064;-62
2023/05/16 07:05:09;;;;;;;22.50;17.35;;;;;;;15.87;100.00;99578.34;5071996;28;20226;-62
2023/05/16 07:07:35;;;;;;;21.50;15.35;;;;;;;15.84;100.00;99570.72;5072504;28;20043;-61
2023/05/16 07:10:00;;;;;;;21.98;14.77;;;;;;;15.71;100.00;99570.69;5073990;28;20264;-62
2023/05/16 07:12:26;;;;;;;19.42;15.60;;;;;;;15.81;100.00;99571.97;5074334;28;20029;-62
2023/05/16 07:14:51;;;;;;;23.67;15.00;;;;;;;15.71;100.00;99579.50;5072868;28;20341;-62
2023/05/16 07:17:17;;;;;;;18.77;14.55;;;;;;;15.83;100.00;99579.75;5072392;28;20036;-62
2023/05/16 07:19:42;;;;;;;18.63;14.50;;;;;;;15.98;100.00;99566.25;5071971;28;20302;-61
2023/05/16 07:22:08;;;;;;;21.20;14.77;;;;;;;15.87;100.00;99579.16;5072598;28;20349;-62
2023/05/16 07:24:35;;;;;;;21.98;15.88;;;;;;;15.95;100.00;99568.31;5071485;28;20044;-62
2023/05/16 07:27:00;;;;;;;21.65;15.32;;;;;;;16.02;100.00;99565.66;5071433;28;20059;-62
2023/05/16 07:29:26;;;;;;;20.92;16.33;;;;;;;16.13;100.00;99566.91;5073467;28;20210;-62
2023/05/16 07:31:51;;;;;;;20.80;15.50;;;;;;;16.30;100.00;99568.19;5072877;28;20088;-62
2023/05/16 07:34:17;;;;;;;20.13;14.50;;;;;;;16.23;100.00;99552.13;5071132;28;20086;-62
2023/05/16 07:36:42;;;;;;;21.55;16.50;;;;;;;16.27;100.00;99547.22;5071372;28;20047;-62
2023/05/16 07:39:08;;;;;;;21.92;16.50;;;;;;;16.29;100.00;99542.47;5072197;28;20056;-61
2023/05/16 07:41:33;;;;;;;25.10;17.35;;;;;;;16.45;100.00;99549.28;5076174;28;20033;-62
2023/05/16 07:43:59;;;;;;;26.10;17.90;;;;;;;16.42;100.00;99550.50;5076680;28;20028;-61
2023/05/16 07:46:24;;;;;;;24.25;17.05;;;;;;;16.40;100.00;99555.25;5075486;28;20047;-61
2023/05/16 07:48:50;;;;;;;20.90;15.55;;;;;;;16.64;100.00;99556.47;5076225;28;20042;-62
2023/05/16 07:51:16;;;;;;;22.05;15.35;;;;;;;16.56;100.00;99551.34;5074427;28;20036;-61
2023/05/16 07:53:41;;;;;;;23.40;17.20;;;;;;;16.60;100.00;99560.59;5076379;28;20078;-61
2023/05/16 07:56:07;;;;;;;25.90;18.02;;;;;;;16.73;100.00;99559.84;5075949;28;20105;-61
2023/05/16 07:58:33;;;;;;;20.80;15.93;;;;;;;16.64;100.00;99539.63;5076053;28;20425;-61
2023/05/16 08:00:58;;;;;;;22.70;16.85;;;;;;;16.69;100.00;99535.38;5076298;28;20067;-62
2023/05/16 08:03:24;;;;;;;21.42;16.08;;;;;;;16.84;100.00;99533.28;5075813;28;20028;-62
2023/05/16 08:05:50;;;;;;;24.50;17.75;;;;;;;16.98;100.00;99535.94;5076344;28;20028;-62
2023/05/16 08:08:16;;;;;;;24.58;17.42;;;;;;;16.76;100.00;99538.03;5075678;28;20048;-61
2023/05/16 08:10:41;;;;;;;24.15;17.45;;;;;;;16.87;100.00;99540.06;5076685;28;20047;-62
2023/05/16 08:13:07;;;;;;;24.90;18.92;;;;;;;16.94;100.00;99530.19;5077313;28;20036;-62
2023/05/16 08:15:32;;;;;;;27.17;18.40;;;;;;;16.81;100.00;99523.00;5076604;28;20040;-62
2023/05/16 08:17:58;;;;;;;27.60;18.33;;;;;;;16.75;100.00;99528.38;5076653;28;20036;-61
2023/05/16 08:20:24;;;;;;;25.40;18.55;;;;;;;16.61;100.00;99535.50;5076881;28;20096;-61
2023/05/16 08:22:50;;;;;;;26.85;19.70;;;;;;;16.71;100.00;99540.50;5076869;28;20047;-62
2023/05/16 08:25:16;;;;;;;28.27;19.50;;;;;;;16.80;100.00;99528.56;5076597;28;20032;-62
2023/05/16 08:27:41;;;;;;;25.05;18.42;;;;;;;17.07;100.00;99532.84;5075907;28;20048;-62
2023/05/16 08:30:10;;;;;;;29.50;18.83;;;;;;;16.95;100.00;99521.13;5076917;28;20407;-62
2023/05/16 08:32:36;;;;;;;27.73;19.38;;;;;;;16.97;100.00;99523.59;5076817;28;20028;-62
2023/05/16 08:35:01;;;;;;;27.75;18.42;;;;;;;16.90;100.00;99523.63;5077095;28;20078;-63
2023/05/16 08:37:27;;;;;;;20.38;15.00;;;;;;;16.72;100.00;99528.78;5077084;28;20035;-62
2023/05/16 08:39:52;;;;;;;21.45;15.10;;;;;;;16.81;100.00;99515.00;5076689;28;20052;-62
2023/05/16 08:42:18;;;;;;;25.13;15.43;;;;;;;16.81;100.00;99515.00;5076665;28;20086;-61
2023/05/16 08:44:43;;;;;;;20.55;16.58;;;;;;;16.77;100.00;99516.44;5072862;28;20202;-62
2023/05/16 08:47:17;;;;;;;21.75;16.67;;;;;;;16.79;100.00;99510.88;5071284;28;20281;-62
2023/05/16 08:49:47;;;;;;;24.52;16.50;;;;;;;16.88;100.00;99509.63;5070517;28;20104;-61
2023/05/16 08:52:13;;;;;;;24.55;16.00;;;;;;;16.81;100.00;99511.50;5070906;28;20504;-62
2023/05/16 08:54:39;;;;;;;27.45;19.23;;;;;;;16.96;100.00;99509.41;5072890;28;20052;-61
2023/05/16 08:57:07;;;;;;;23.75;17.63;;;;;;;17.21;100.00;99493.50;5071633;28;20262;-62
2023/05/16 08:59:33;;;;;;;24.15;18.83;;;;;;;17.58;100.00;99483.88;5071371;28;20115;-62
2023/05/16 09:01:59;;;;;;;21.95;16.20;;;;;;;17.44;100.00;99484.97;5071777;28;20118;-62
2023/05/16 09:04:26;;;;;;;20.58;17.30;;;;;;;17.54;100.00;99488.00;5071508;28;20120;-62
2023/05/16 09:06:52;;;;;;;21.70;17.17;;;;;;;17.74;100.00;99494.16;5071346;28;20112;-61
2023/05/16 09:09:18;;;;;;;21.00;15.27;;;;;;;17.51;100.00;99499.13;5071840;28;20048;-62
2023/05/16 09:11:44;;;;;;;19.65;15.15;;;;;;;17.56;100.00;99496.66;5072848;28;20036;-63
2023/05/16 09:14:10;;;;;;;22.70;15.85;;;;;;;17.64;100.00;99496.41;5069290;28;20276;-62
2023/05/16 09:16:35;;;;;;;19.17;16.00;;;;;;;17.70;100.00;99490.25;5069723;28;20032;-62
2023/05/16 09:19:01;;;;;;;23.30;16.05;;;;;;;17.75;100.00;99503.00;5070061;28;20715;-62
2023/05/16 09:21:32;;;;;;;19.52;14.80;;;;;;;17.86;100.00;99511.19;5074626;28;20036;-61
2023/05/16 09:24:05;;;;;;;18.83;14.38;;;;;;;17.89;100.00;99491.19;5074585;28;20228;-62
2023/05/16 09:26:35;;;;;;;20.90;15.07;;;;;;;18.05;100.00;99487.97;5072558;28;20058;-62
2023/05/16 09:29:01;;;;;;;18.30;14.52;;;;;;;18.08;100.00;99490.22;5075513;28;20313;-62
2023/05/16 09:31:36;;;;;;;22.25;16.83;;;;;;;17.96;100.00;99491.94;5074710;28;20261;-62
2023/05/16 09:34:06;;;;;;;21.25;16.17;;;;;;;17.96;100.00;99496.50;5068824;28;20029;-62
2023/05/16 09:36:32;;;;;;;21.25;16.38;;;;;;;17.94;100.00;99480.63;5074463;28;20028;-62
2023/05/16 09:38:57;;;;;;;21.40;16.10;;;;;;;17.82;100.00;99461.75;5073755;28;20290;-62
2023/05/16 09:41:23;;;;;;;22.67;15.23;;;;;;;17.80;100.00;99439.72;5072646;28;20265;-62
2023/05/16 09:43:49;;;;;;;18.55;15.20;;;;;;;17.62;100.00;99447.59;5072696;28;20036;-62
2023/05/16 09:46:15;;;;;;;19.48;14.98;;;;;;;17.74;100.00;99453.97;5074154;28;20304;-63
2023/05/16 09:48:44;;;;;;;18.80;15.68;;;;;;;17.85;100.00;99463.19;5071277;28;20112;-63
2023/05/16 09:51:11;;;;;;;22.95;16.40;;;;;;;17.93;100.00;99451.38;5072711;28;20231;-62
2023/05/16 09:53:38;;;;;;;16.42;14.60;;;;;;;17.97;100.00;99441.88;5073526;28;20048;-62
2023/05/16 09:56:10;;;;;;;15.00;12.98;;;;;;;18.00;100.00;99436.91;5071323;28;20037;-62
2023/05/16 09:58:40;;;;;;;16.15;14.45;;;;;;;18.21;100.00;99424.16;5074939;28;20206;-62
2023/05/16 10:01:06;;;;;;;20.35;14.95;;;;;;;18.06;100.00;99408.44;5073368;28;20111;-62
2023/05/16 10:03:35;;;;;;;19.02;13.85;;;;;;;18.05;100.00;99423.69;5073805;28;20036;-62
2023/05/16 10:06:01;;;;;;;18.80;14.98;;;;;;;18.19;100.00;99446.66;5075441;28;20936;-62
2023/05/16 10:08:30;;;;;;;17.45;15.18;;;;;;;18.30;100.00;99466.56;5073961;28;20091;-63
2023/05/16 10:10:56;;;;;;;18.30;14.90;;;;;;;18.46;100.00;99479.41;5074633;28;20039;-62
2023/05/16 10:13:28;;;;;;;20.35;15.80;;;;;;;18.56;100.00;99465.50;5073803;28;20036;-63
2023/05/16 10:15:55;;;;;;;22.10;14.57;;;;;;;18.46;100.00;99476.72;5073440;28;20230;-63
2023/05/16 10:18:27;;;;;;;20.00;15.27;;;;;;;18.55;100.00;99455.81;5072910;28;20458;-62
2023/05/16 10:20:54;;;;;;;17.48;14.40;;;;;;;18.56;100.00;99457.47;5073269;28;20233;-62
2023/05/16 10:23:21;;;;;;;18.42;14.25;;;;;;;18.45;100.00;99448.28;5074283;28;20044;-61
2023/05/16 10:25:48;;;;;;;18.70;15.48;;;;;;;18.68;100.00;99434.28;5074095;28;20096;-62
2023/05/16 10:28:15;;;;;;;18.45;14.35;;;;;;;18.79;100.00;99428.19;5073889;28;20052;-62
2023/05/16 10:30:45;;;;;;;22.15;14.85;;;;;;;18.78;100.00;99415.84;5073266;28;20047;-63
2023/05/16 10:33:16;;;;;;;19.40;14.15;;;;;;;18.65;100.00;99407.91;5071486;28;20067;-62
2023/05/16 10:35:42;;;;;;;17.33;14.18;;;;;;;18.62;100.00;99400.28;5073556;28;20369;-62
2023/05/16 10:38:10;;;;;;;18.92;14.57;;;;;;;18.86;100.00;99398.63;5072969;28;20221;-62
2023/05/16 10:40:38;;;;;;;20.73;15.98;;;;;;;19.09;100.00;99398.75;5073647;28;20051;-62
2023/05/16 10:43:05;;;;;;;16.85;14.95;;;;;;;19.26;100.00;99395.44;5074538;28;20933;-62
2023/05/16 10:45:31;;;;;;;16.75;13.80;;;;;;;19.41;100.00;99391.31;5072133;28;20040;-62
2023/05/16 10:47:58;;;;;;;16.38;14.20;;;;;;;19.55;100.00;99391.16;5074905;28;20237;-62
2023/05/16 10:50:41;;;;;;;18.77;14.18;;;;;;;19.69;100.00;99377.28;5073789;28;20067;-63
2023/05/16 10:53:15;;;;;;;17.10;13.75;;;;;;;19.78;100.00;99375.13;5073298;28;20215;-63
2023/05/16 10:55:47;;;;;;;17.38;13.73;;;;;;;19.94;100.00;99377.13;5072660;28;20338;-63
2023/05/16 10:58:21;;;;;;;18.10;14.50;;;;;;;19.95;100.00;99368.03;5074392;28;20040;-63
2023/05/16 11:00:47;;;;;;;18.30;14.45;;;;;;;19.91;100.00;99366.03;5073836;28;21032;-62
2023/05/16 11:03:27;;;;;;;17.35;14.45;;;;;;;19.97;100.00;99370.47;5072132;28;20044;-62
2023/05/16 11:05:53;;;;;;;18.00;14.02;;;;;;;20.02;100.00;99381.34;5072063;28;20024;-62
2023/05/16 11:08:18;;;;;;;21.45;15.10;;;;;;;20.03;100.00;99366.88;5073721;28;20056;-63